sensor_id;sensor_type;location;lat;lon;timestamp;P1;durP1;ratioP1;P2;durP2;ratioP2
34359;SDS011;20624;55.870;26.506;2022-10-17T00:02:00;3.63;;;1.15;;
34359;SDS011;20624;55.870;26.506;2022-10-17T00:04:27;3.22;;;0.93;;
34359;SDS011;20624;55.870;26.506;2022-10-17T00:06:55;3.25;;;1.10;;
34359;SDS011;20624;55.870;26.506;2022-10-17T00:09:22;3.22;;;1.13;;
34359;SDS011;20624;55.870;26.506;2022-10-17T00:11:50;2.22;;;1.08;;
34359;SDS011;20624;55.870;26.506;2022-10-17T00:14:17;4.85;;;1.10;;
34359;SDS011;20624;55.870;26.506;2022-10-17T00:16:48;2.67;;;1.08;;
34359;SDS011;20624;55.870;26.506;2022-10-17T00:19:15;2.45;;;1.08;;
34359;SDS011;20624;55.870;26.506;2022-10-17T00:21:43;2.05;;;0.90;;
34359;SDS011;20624;55.870;26.506;2022-10-17T00:24:10;3.30;;;0.90;;
34359;SDS011;20624;55.870;26.506;2022-10-17T00:26:38;3.65;;;1.00;;
34359;SDS011;20624;55.870;26.506;2022-10-17T00:29:05;3.67;;;1.23;;
34359;SDS011;20624;55.870;26.506;2022-10-17T00:31:34;1.67;;;0.82;;
34359;SDS011;20624;55.870;26.506;2022-10-17T00:34:02;3.13;;;1.10;;
34359;SDS011;20624;55.870;26.506;2022-10-17T00:36:29;2.97;;;1.20;;
34359;SDS011;20624;55.870;26.506;2022-10-17T00:38:58;2.95;;;1.08;;
34359;SDS011;20624;55.870;26.506;2022-10-17T00:41:27;3.05;;;0.90;;
34359;SDS011;20624;55.870;26.506;2022-10-17T00:46:52;2.67;;;0.95;;
34359;SDS011;20624;55.870;26.506;2022-10-17T00:49:20;4.00;;;1.30;;
34359;SDS011;20624;55.870;26.506;2022-10-17T00:51:53;1.73;;;0.90;;
34359;SDS011;20624;55.870;26.506;2022-10-17T00:54:26;1.50;;;0.75;;
34359;SDS011;20624;55.870;26.506;2022-10-17T00:56:55;1.95;;;0.80;;
34359;SDS011;20624;55.870;26.506;2022-10-17T00:59:22;20.98;;;3.33;;
34359;SDS011;20624;55.870;26.506;2022-10-17T01:02:01;3.40;;;1.40;;
34359;SDS011;20624;55.870;26.506;2022-10-17T01:04:31;1.55;;;0.90;;
34359;SDS011;20624;55.870;26.506;2022-10-17T01:06:59;2.83;;;1.00;;
34359;SDS011;20624;55.870;26.506;2022-10-17T01:09:26;3.13;;;0.90;;
34359;SDS011;20624;55.870;26.506;2022-10-17T01:12:06;2.35;;;1.02;;
34359;SDS011;20624;55.870;26.506;2022-10-17T01:28:50;3.40;;;1.17;;
34359;SDS011;20624;55.870;26.506;2022-10-17T01:31:22;3.25;;;1.10;;
34359;SDS011;20624;55.870;26.506;2022-10-17T01:36:53;2.58;;;1.00;;
34359;SDS011;20624;55.870;26.506;2022-10-17T01:39:41;2.08;;;0.80;;
34359;SDS011;20624;55.870;26.506;2022-10-17T01:45:41;4.03;;;0.85;;
34359;SDS011;20624;55.870;26.506;2022-10-17T01:48:13;2.25;;;1.00;;
34359;SDS011;20624;55.870;26.506;2022-10-17T01:50:50;3.22;;;1.08;;
34359;SDS011;20624;55.870;26.506;2022-10-17T01:53:26;3.15;;;1.10;;
34359;SDS011;20624;55.870;26.506;2022-10-17T01:55:58;4.32;;;1.20;;
34359;SDS011;20624;55.870;26.506;2022-10-17T01:58:32;3.10;;;1.00;;
34359;SDS011;20624;55.870;26.506;2022-10-17T02:01:04;2.47;;;1.00;;
34359;SDS011;20624;55.870;26.506;2022-10-17T02:03:34;2.92;;;1.20;;
34359;SDS011;20624;55.870;26.506;2022-10-17T02:06:02;1.40;;;0.73;;
34359;SDS011;20624;55.870;26.506;2022-10-17T02:08:40;4.60;;;1.20;;
34359;SDS011;20624;55.870;26.506;2022-10-17T02:11:21;3.50;;;1.02;;
34359;SDS011;20624;55.870;26.506;2022-10-17T02:24:47;1.70;;;0.80;;
34359;SDS011;20624;55.870;26.506;2022-10-17T02:35:00;2.83;;;1.05;;
34359;SDS011;20624;55.870;26.506;2022-10-17T02:37:31;4.25;;;1.20;;
34359;SDS011;20624;55.870;26.506;2022-10-17T02:39:59;2.70;;;0.88;;
34359;SDS011;20624;55.870;26.506;2022-10-17T02:42:28;6.07;;;1.40;;
34359;SDS011;20624;55.870;26.506;2022-10-17T02:44:58;2.90;;;1.10;;
34359;SDS011;20624;55.870;26.506;2022-10-17T02:47:31;2.83;;;0.95;;
34359;SDS011;20624;55.870;26.506;2022-10-17T02:50:01;4.20;;;1.33;;
34359;SDS011;20624;55.870;26.506;2022-10-17T02:52:36;6.13;;;1.45;;
34359;SDS011;20624;55.870;26.506;2022-10-17T02:55:32;4.13;;;1.13;;
34359;SDS011;20624;55.870;26.506;2022-10-17T02:58:06;3.03;;;1.15;;
34359;SDS011;20624;55.870;26.506;2022-10-17T03:00:44;7.70;;;1.75;;
34359;SDS011;20624;55.870;26.506;2022-10-17T03:03:45;4.80;;;1.10;;
34359;SDS011;20624;55.870;26.506;2022-10-17T03:06:06;4.15;;;1.08;;
34359;SDS011;20624;55.870;26.506;2022-10-17T03:08:33;3.25;;;0.98;;
34359;SDS011;20624;55.870;26.506;2022-10-17T03:11:01;4.18;;;1.17;;
34359;SDS011;20624;55.870;26.506;2022-10-17T03:13:28;2.88;;;0.90;;
34359;SDS011;20624;55.870;26.506;2022-10-17T03:16:00;7.82;;;1.67;;
34359;SDS011;20624;55.870;26.506;2022-10-17T03:18:28;3.90;;;1.10;;
34359;SDS011;20624;55.870;26.506;2022-10-17T03:20:55;2.17;;;0.90;;
34359;SDS011;20624;55.870;26.506;2022-10-17T03:23:23;3.90;;;1.20;;
34359;SDS011;20624;55.870;26.506;2022-10-17T03:25:51;3.13;;;1.05;;
34359;SDS011;20624;55.870;26.506;2022-10-17T03:28:19;3.58;;;1.10;;
34359;SDS011;20624;55.870;26.506;2022-10-17T03:30:47;3.90;;;1.10;;
34359;SDS011;20624;55.870;26.506;2022-10-17T03:33:15;3.53;;;1.13;;
34359;SDS011;20624;55.870;26.506;2022-10-17T03:35:42;3.20;;;1.02;;
34359;SDS011;20624;55.870;26.506;2022-10-17T03:38:10;2.40;;;1.10;;
34359;SDS011;20624;55.870;26.506;2022-10-17T03:40:37;3.80;;;1.13;;
34359;SDS011;20624;55.870;26.506;2022-10-17T03:43:05;4.10;;;1.30;;
34359;SDS011;20624;55.870;26.506;2022-10-17T03:45:33;5.90;;;1.38;;
34359;SDS011;20624;55.870;26.506;2022-10-17T03:50:30;4.13;;;0.90;;
34359;SDS011;20624;55.870;26.506;2022-10-17T03:52:58;3.55;;;1.10;;
34359;SDS011;20624;55.870;26.506;2022-10-17T03:55:25;4.95;;;1.25;;
34359;SDS011;20624;55.870;26.506;2022-10-17T03:57:53;8.05;;;1.55;;
34359;SDS011;20624;55.870;26.506;2022-10-17T04:00:20;4.18;;;1.90;;
34359;SDS011;20624;55.870;26.506;2022-10-17T04:02:48;5.85;;;4.10;;
34359;SDS011;20624;55.870;26.506;2022-10-17T04:05:16;5.78;;;4.88;;
34359;SDS011;20624;55.870;26.506;2022-10-17T04:07:43;13.77;;;10.27;;
34359;SDS011;20624;55.870;26.506;2022-10-17T04:10:11;28.88;;;26.13;;
34359;SDS011;20624;55.870;26.506;2022-10-17T04:12:38;24.20;;;22.30;;
34359;SDS011;20624;55.870;26.506;2022-10-17T04:15:06;49.38;;;41.92;;
34359;SDS011;20624;55.870;26.506;2022-10-17T04:17:34;24.83;;;22.50;;
34359;SDS011;20624;55.870;26.506;2022-10-17T04:20:03;34.67;;;31.30;;
34359;SDS011;20624;55.870;26.506;2022-10-17T04:22:31;26.52;;;24.33;;
34359;SDS011;20624;55.870;26.506;2022-10-17T04:24:58;48.08;;;42.00;;
34359;SDS011;20624;55.870;26.506;2022-10-17T04:27:26;44.83;;;39.97;;
34359;SDS011;20624;55.870;26.506;2022-10-17T04:29:53;58.42;;;44.50;;
34359;SDS011;20624;55.870;26.506;2022-10-17T04:32:21;57.70;;;45.42;;
34359;SDS011;20624;55.870;26.506;2022-10-17T04:34:51;69.40;;;40.22;;
34359;SDS011;20624;55.870;26.506;2022-10-17T04:37:18;5.40;;;1.23;;
34359;SDS011;20624;55.870;26.506;2022-10-17T04:39:46;50.60;;;33.63;;
34359;SDS011;20624;55.870;26.506;2022-10-17T04:42:13;10.90;;;1.88;;
34359;SDS011;20624;55.870;26.506;2022-10-17T04:44:41;5.35;;;1.35;;
34359;SDS011;20624;55.870;26.506;2022-10-17T04:47:09;55.78;;;38.13;;
34359;SDS011;20624;55.870;26.506;2022-10-17T04:49:36;24.85;;;15.45;;
34359;SDS011;20624;55.870;26.506;2022-10-17T04:52:04;78.88;;;51.60;;
34359;SDS011;20624;55.870;26.506;2022-10-17T04:54:32;110.35;;;49.67;;
34359;SDS011;20624;55.870;26.506;2022-10-17T04:56:59;45.05;;;26.02;;
34359;SDS011;20624;55.870;26.506;2022-10-17T04:59:27;148.85;;;66.00;;
34359;SDS011;20624;55.870;26.506;2022-10-17T05:01:55;109.35;;;62.78;;
34359;SDS011;20624;55.870;26.506;2022-10-17T05:04:23;119.95;;;64.38;;
34359;SDS011;20624;55.870;26.506;2022-10-17T05:06:52;142.00;;;71.30;;
34359;SDS011;20624;55.870;26.506;2022-10-17T05:09:20;111.55;;;63.53;;
34359;SDS011;20624;55.870;26.506;2022-10-17T05:11:47;166.23;;;80.63;;
34359;SDS011;20624;55.870;26.506;2022-10-17T05:14:15;139.25;;;74.47;;
34359;SDS011;20624;55.870;26.506;2022-10-17T05:16:42;221.10;;;100.75;;
34359;SDS011;20624;55.870;26.506;2022-10-17T05:19:10;195.90;;;94.50;;
34359;SDS011;20624;55.870;26.506;2022-10-17T05:21:38;184.80;;;80.00;;
34359;SDS011;20624;55.870;26.506;2022-10-17T05:24:06;163.30;;;76.78;;
34359;SDS011;20624;55.870;26.506;2022-10-17T05:26:35;147.85;;;67.97;;
34359;SDS011;20624;55.870;26.506;2022-10-17T05:29:03;70.18;;;36.58;;
34359;SDS011;20624;55.870;26.506;2022-10-17T05:31:31;48.67;;;21.25;;
34359;SDS011;20624;55.870;26.506;2022-10-17T05:33:59;218.25;;;104.18;;
34359;SDS011;20624;55.870;26.506;2022-10-17T05:36:34;89.03;;;36.28;;
34359;SDS011;20624;55.870;26.506;2022-10-17T05:39:02;143.20;;;61.85;;
34359;SDS011;20624;55.870;26.506;2022-10-17T05:41:29;187.95;;;88.15;;
34359;SDS011;20624;55.870;26.506;2022-10-17T05:43:57;137.63;;;51.17;;
34359;SDS011;20624;55.870;26.506;2022-10-17T05:46:30;276.13;;;123.57;;
34359;SDS011;20624;55.870;26.506;2022-10-17T05:48:58;43.70;;;5.95;;
34359;SDS011;20624;55.870;26.506;2022-10-17T05:51:26;27.80;;;4.53;;
34359;SDS011;20624;55.870;26.506;2022-10-17T05:53:54;20.77;;;3.63;;
34359;SDS011;20624;55.870;26.506;2022-10-17T05:56:21;28.00;;;5.30;;
34359;SDS011;20624;55.870;26.506;2022-10-17T05:58:49;37.53;;;7.15;;
34359;SDS011;20624;55.870;26.506;2022-10-17T06:01:22;50.65;;;8.55;;
34359;SDS011;20624;55.870;26.506;2022-10-17T06:03:50;22.25;;;5.53;;
34359;SDS011;20624;55.870;26.506;2022-10-17T06:06:18;37.72;;;7.50;;
34359;SDS011;20624;55.870;26.506;2022-10-17T06:08:46;39.88;;;8.18;;
34359;SDS011;20624;55.870;26.506;2022-10-17T06:11:14;29.13;;;6.28;;
34359;SDS011;20624;55.870;26.506;2022-10-17T06:13:42;58.25;;;10.50;;
34359;SDS011;20624;55.870;26.506;2022-10-17T06:16:10;49.17;;;9.43;;
34359;SDS011;20624;55.870;26.506;2022-10-17T06:18:41;26.08;;;6.07;;
34359;SDS011;20624;55.870;26.506;2022-10-17T06:21:09;51.58;;;9.68;;
34359;SDS011;20624;55.870;26.506;2022-10-17T06:23:40;32.90;;;6.63;;
34359;SDS011;20624;55.870;26.506;2022-10-17T06:26:08;37.08;;;7.10;;
34359;SDS011;20624;55.870;26.506;2022-10-17T06:28:36;40.35;;;7.78;;
34359;SDS011;20624;55.870;26.506;2022-10-17T06:31:09;53.70;;;9.70;;
34359;SDS011;20624;55.870;26.506;2022-10-17T06:33:38;48.60;;;8.95;;
34359;SDS011;20624;55.870;26.506;2022-10-17T06:36:06;52.08;;;9.15;;
34359;SDS011;20624;55.870;26.506;2022-10-17T06:38:34;43.97;;;7.78;;
34359;SDS011;20624;55.870;26.506;2022-10-17T06:41:09;45.42;;;7.90;;
34359;SDS011;20624;55.870;26.506;2022-10-17T06:43:40;39.38;;;7.47;;
34359;SDS011;20624;55.870;26.506;2022-10-17T06:46:08;57.67;;;9.93;;
34359;SDS011;20624;55.870;26.506;2022-10-17T06:48:36;34.85;;;6.72;;
34359;SDS011;20624;55.870;26.506;2022-10-17T06:51:04;50.80;;;8.85;;
34359;SDS011;20624;55.870;26.506;2022-10-17T06:53:35;35.67;;;6.72;;
34359;SDS011;20624;55.870;26.506;2022-10-17T06:56:03;58.33;;;10.32;;
34359;SDS011;20624;55.870;26.506;2022-10-17T06:58:33;26.73;;;5.30;;
34359;SDS011;20624;55.870;26.506;2022-10-17T07:01:05;40.40;;;7.47;;
34359;SDS011;20624;55.870;26.506;2022-10-17T07:03:34;35.90;;;6.50;;
34359;SDS011;20624;55.870;26.506;2022-10-17T07:06:02;29.00;;;5.32;;
34359;SDS011;20624;55.870;26.506;2022-10-17T07:08:31;31.75;;;6.07;;
34359;SDS011;20624;55.870;26.506;2022-10-17T07:11:15;39.85;;;7.13;;
34359;SDS011;20624;55.870;26.506;2022-10-17T07:13:43;30.98;;;5.60;;
34359;SDS011;20624;55.870;26.506;2022-10-17T07:16:12;49.10;;;8.02;;
34359;SDS011;20624;55.870;26.506;2022-10-17T07:18:40;55.95;;;9.38;;
34359;SDS011;20624;55.870;26.506;2022-10-17T07:21:08;46.30;;;7.55;;
34359;SDS011;20624;55.870;26.506;2022-10-17T07:23:36;48.13;;;7.78;;
34359;SDS011;20624;55.870;26.506;2022-10-17T07:26:09;21.45;;;4.25;;
34359;SDS011;20624;55.870;26.506;2022-10-17T07:28:39;47.35;;;7.68;;
34359;SDS011;20624;55.870;26.506;2022-10-17T07:31:10;30.20;;;5.15;;
34359;SDS011;20624;55.870;26.506;2022-10-17T07:33:38;40.00;;;6.65;;
34359;SDS011;20624;55.870;26.506;2022-10-17T07:36:06;52.67;;;8.43;;
34359;SDS011;20624;55.870;26.506;2022-10-17T07:38:35;35.53;;;5.65;;
34359;SDS011;20624;55.870;26.506;2022-10-17T07:41:04;48.35;;;8.10;;
34359;SDS011;20624;55.870;26.506;2022-10-17T07:43:32;38.08;;;6.22;;
34359;SDS011;20624;55.870;26.506;2022-10-17T07:46:02;38.88;;;6.18;;
34359;SDS011;20624;55.870;26.506;2022-10-17T07:48:31;32.00;;;5.25;;
34359;SDS011;20624;55.870;26.506;2022-10-17T07:51:03;26.67;;;4.88;;
34359;SDS011;20624;55.870;26.506;2022-10-17T07:53:33;29.63;;;5.15;;
34359;SDS011;20624;55.870;26.506;2022-10-17T07:56:05;64.93;;;9.93;;
34359;SDS011;20624;55.870;26.506;2022-10-17T07:58:33;50.60;;;8.27;;
34359;SDS011;20624;55.870;26.506;2022-10-17T08:01:03;45.78;;;7.85;;
34359;SDS011;20624;55.870;26.506;2022-10-17T08:03:34;57.85;;;9.23;;
34359;SDS011;20624;55.870;26.506;2022-10-17T08:06:04;36.55;;;6.53;;
34359;SDS011;20624;55.870;26.506;2022-10-17T08:08:32;50.75;;;8.07;;
34359;SDS011;20624;55.870;26.506;2022-10-17T08:11:01;57.88;;;9.30;;
34359;SDS011;20624;55.870;26.506;2022-10-17T08:13:31;59.72;;;9.63;;
34359;SDS011;20624;55.870;26.506;2022-10-17T08:16:00;46.38;;;7.93;;
34359;SDS011;20624;55.870;26.506;2022-10-17T08:18:30;41.60;;;6.78;;
34359;SDS011;20624;55.870;26.506;2022-10-17T08:20:59;48.08;;;7.97;;
34359;SDS011;20624;55.870;26.506;2022-10-17T08:23:28;62.97;;;9.48;;
34359;SDS011;20624;55.870;26.506;2022-10-17T08:26:00;52.85;;;8.88;;
34359;SDS011;20624;55.870;26.506;2022-10-17T08:28:29;54.75;;;8.82;;
34359;SDS011;20624;55.870;26.506;2022-10-17T08:31:02;50.35;;;8.02;;
34359;SDS011;20624;55.870;26.506;2022-10-17T08:33:31;56.40;;;9.23;;
34359;SDS011;20624;55.870;26.506;2022-10-17T08:36:00;52.90;;;8.45;;
34359;SDS011;20624;55.870;26.506;2022-10-17T08:38:28;38.35;;;6.18;;
34359;SDS011;20624;55.870;26.506;2022-10-17T08:41:02;43.22;;;7.75;;
34359;SDS011;20624;55.870;26.506;2022-10-17T08:43:34;32.90;;;5.68;;
34359;SDS011;20624;55.870;26.506;2022-10-17T08:46:04;58.03;;;9.50;;
34359;SDS011;20624;55.870;26.506;2022-10-17T08:48:34;37.33;;;5.85;;
34359;SDS011;20624;55.870;26.506;2022-10-17T08:51:09;44.65;;;7.22;;
34359;SDS011;20624;55.870;26.506;2022-10-17T08:53:46;28.00;;;4.80;;
34359;SDS011;20624;55.870;26.506;2022-10-17T08:56:22;34.42;;;5.72;;
34359;SDS011;20624;55.870;26.506;2022-10-17T08:59:13;34.95;;;5.47;;
34359;SDS011;20624;55.870;26.506;2022-10-17T09:20:24;27.67;;;4.85;;
34359;SDS011;20624;55.870;26.506;2022-10-17T09:23:01;22.95;;;3.72;;
34359;SDS011;20624;55.870;26.506;2022-10-17T09:25:34;28.13;;;4.72;;
34359;SDS011;20624;55.870;26.506;2022-10-17T09:30:51;47.45;;;7.60;;
34359;SDS011;20624;55.870;26.506;2022-10-17T09:33:36;42.30;;;6.57;;
34359;SDS011;20624;55.870;26.506;2022-10-17T09:36:34;35.28;;;5.65;;
34359;SDS011;20624;55.870;26.506;2022-10-17T09:39:18;43.67;;;6.93;;
34359;SDS011;20624;55.870;26.506;2022-10-17T09:41:49;54.80;;;8.60;;
34359;SDS011;20624;55.870;26.506;2022-10-17T09:44:24;38.45;;;6.45;;
34359;SDS011;20624;55.870;26.506;2022-10-17T09:49:32;37.38;;;6.25;;
34359;SDS011;20624;55.870;26.506;2022-10-17T09:52:54;29.08;;;4.68;;
34359;SDS011;20624;55.870;26.506;2022-10-17T09:57:58;20.25;;;3.35;;
34359;SDS011;20624;55.870;26.506;2022-10-17T10:00:28;22.95;;;3.95;;
34359;SDS011;20624;55.870;26.506;2022-10-17T10:05:38;41.72;;;6.63;;
34359;SDS011;20624;55.870;26.506;2022-10-17T10:08:16;34.35;;;5.85;;
34359;SDS011;20624;55.870;26.506;2022-10-17T10:10:48;33.60;;;5.65;;
34359;SDS011;20624;55.870;26.506;2022-10-17T10:13:24;28.63;;;5.00;;
34359;SDS011;20624;55.870;26.506;2022-10-17T10:16:13;39.65;;;6.22;;
34359;SDS011;20624;55.870;26.506;2022-10-17T10:19:48;30.40;;;5.05;;
34359;SDS011;20624;55.870;26.506;2022-10-17T10:22:05;23.38;;;4.13;;
34359;SDS011;20624;55.870;26.506;2022-10-17T10:24:44;23.70;;;4.25;;
34359;SDS011;20624;55.870;26.506;2022-10-17T10:27:13;34.33;;;5.78;;
34359;SDS011;20624;55.870;26.506;2022-10-17T10:29:42;38.42;;;6.38;;
34359;SDS011;20624;55.870;26.506;2022-10-17T10:34:49;53.10;;;8.05;;
34359;SDS011;20624;55.870;26.506;2022-10-17T10:37:27;30.20;;;4.60;;
34359;SDS011;20624;55.870;26.506;2022-10-17T10:40:03;35.25;;;5.85;;
34359;SDS011;20624;55.870;26.506;2022-10-17T10:42:34;34.03;;;5.57;;
34359;SDS011;20624;55.870;26.506;2022-10-17T10:48:23;31.15;;;5.18;;
34359;SDS011;20624;55.870;26.506;2022-10-17T10:53:42;36.17;;;5.53;;
34359;SDS011;20624;55.870;26.506;2022-10-17T10:56:16;51.95;;;7.82;;
34359;SDS011;20624;55.870;26.506;2022-10-17T10:58:53;40.25;;;6.32;;
34359;SDS011;20624;55.870;26.506;2022-10-17T11:03:55;38.40;;;6.32;;
34359;SDS011;20624;55.870;26.506;2022-10-17T11:06:51;117.43;;;17.73;;
34359;SDS011;20624;55.870;26.506;2022-10-17T11:14:52;44.03;;;6.40;;
34359;SDS011;20624;55.870;26.506;2022-10-17T11:18:05;66.72;;;10.18;;
34359;SDS011;20624;55.870;26.506;2022-10-17T11:25:51;47.63;;;7.35;;
34359;SDS011;20624;55.870;26.506;2022-10-17T11:28:22;26.95;;;4.10;;
34359;SDS011;20624;55.870;26.506;2022-10-17T11:30:55;55.85;;;8.23;;
34359;SDS011;20624;55.870;26.506;2022-10-17T11:33:52;25.73;;;3.95;;
34359;SDS011;20624;55.870;26.506;2022-10-17T11:36:31;52.78;;;8.10;;
34359;SDS011;20624;55.870;26.506;2022-10-17T11:39:06;22.23;;;3.42;;
34359;SDS011;20624;55.870;26.506;2022-10-17T11:41:45;35.88;;;6.20;;
34359;SDS011;20624;55.870;26.506;2022-10-17T11:46:47;34.40;;;5.75;;
34359;SDS011;20624;55.870;26.506;2022-10-17T11:49:23;38.53;;;5.88;;
34359;SDS011;20624;55.870;26.506;2022-10-17T11:55:26;37.35;;;5.70;;
34359;SDS011;20624;55.870;26.506;2022-10-17T12:00:30;32.20;;;5.10;;
34359;SDS011;20624;55.870;26.506;2022-10-17T12:06:07;31.33;;;4.65;;
34359;SDS011;20624;55.870;26.506;2022-10-17T12:11:41;47.38;;;7.25;;
34359;SDS011;20624;55.870;26.506;2022-10-17T12:17:33;38.42;;;5.75;;
34359;SDS011;20624;55.870;26.506;2022-10-17T12:20:25;46.15;;;7.05;;
34359;SDS011;20624;55.870;26.506;2022-10-17T12:22:58;68.35;;;9.95;;
34359;SDS011;20624;55.870;26.506;2022-10-17T12:25:33;32.65;;;4.93;;
34359;SDS011;20624;55.870;26.506;2022-10-17T12:30:36;39.47;;;6.20;;
34359;SDS011;20624;55.870;26.506;2022-10-17T12:33:17;45.17;;;6.95;;
34359;SDS011;20624;55.870;26.506;2022-10-17T12:36:38;41.13;;;6.30;;
34359;SDS011;20624;55.870;26.506;2022-10-17T12:38:44;43.78;;;6.65;;
34359;SDS011;20624;55.870;26.506;2022-10-17T12:41:15;38.10;;;5.50;;
34359;SDS011;20624;55.870;26.506;2022-10-17T12:43:47;49.25;;;7.55;;
34359;SDS011;20624;55.870;26.506;2022-10-17T12:54:40;27.20;;;4.72;;
34359;SDS011;20624;55.870;26.506;2022-10-17T13:00:20;28.55;;;4.63;;
34359;SDS011;20624;55.870;26.506;2022-10-17T13:02:49;27.15;;;4.50;;
34359;SDS011;20624;55.870;26.506;2022-10-17T13:05:46;44.45;;;7.03;;
34359;SDS011;20624;55.870;26.506;2022-10-17T13:08:21;27.23;;;4.95;;
34359;SDS011;20624;55.870;26.506;2022-10-17T13:10:50;31.40;;;5.00;;
34359;SDS011;20624;55.870;26.506;2022-10-17T13:13:21;22.73;;;3.67;;
34359;SDS011;20624;55.870;26.506;2022-10-17T13:15:50;30.00;;;4.40;;
34359;SDS011;20624;55.870;26.506;2022-10-17T13:18:22;49.63;;;7.82;;
34359;SDS011;20624;55.870;26.506;2022-10-17T13:23:33;36.88;;;5.68;;
34359;SDS011;20624;55.870;26.506;2022-10-17T13:26:09;20.85;;;3.28;;
34359;SDS011;20624;55.870;26.506;2022-10-17T13:28:41;30.13;;;5.07;;
34359;SDS011;20624;55.870;26.506;2022-10-17T13:31:54;46.67;;;7.80;;
34359;SDS011;20624;55.870;26.506;2022-10-17T13:34:04;28.85;;;5.28;;
34359;SDS011;20624;55.870;26.506;2022-10-17T13:36:45;34.08;;;6.38;;
34359;SDS011;20624;55.870;26.506;2022-10-17T13:39:15;32.10;;;6.20;;
34359;SDS011;20624;55.870;26.506;2022-10-17T13:42:20;27.58;;;5.07;;
34359;SDS011;20624;55.870;26.506;2022-10-17T13:44:51;32.38;;;6.07;;
34359;SDS011;20624;55.870;26.506;2022-10-17T13:47:20;40.42;;;6.35;;
34359;SDS011;20624;55.870;26.506;2022-10-17T13:49:49;29.70;;;5.15;;
34359;SDS011;20624;55.870;26.506;2022-10-17T13:52:21;32.42;;;5.57;;
34359;SDS011;20624;55.870;26.506;2022-10-17T13:54:50;28.80;;;4.97;;
34359;SDS011;20624;55.870;26.506;2022-10-17T13:57:20;60.53;;;9.57;;
34359;SDS011;20624;55.870;26.506;2022-10-17T13:59:53;42.42;;;6.97;;
34359;SDS011;20624;55.870;26.506;2022-10-17T14:02:32;39.13;;;6.50;;
34359;SDS011;20624;55.870;26.506;2022-10-17T14:07:55;22.30;;;4.70;;
34359;SDS011;20624;55.870;26.506;2022-10-17T14:10:46;62.30;;;10.40;;
34359;SDS011;20624;55.870;26.506;2022-10-17T14:13:20;81.18;;;13.07;;
34359;SDS011;20624;55.870;26.506;2022-10-17T14:15:52;151.55;;;23.02;;
34359;SDS011;20624;55.870;26.506;2022-10-17T14:18:22;24.30;;;4.65;;
34359;SDS011;20624;55.870;26.506;2022-10-17T14:21:01;24.52;;;5.68;;
34359;SDS011;20624;55.870;26.506;2022-10-17T14:23:50;28.58;;;6.00;;
34359;SDS011;20624;55.870;26.506;2022-10-17T14:26:20;21.88;;;5.10;;
34359;SDS011;20624;55.870;26.506;2022-10-17T14:28:49;22.55;;;4.75;;
34359;SDS011;20624;55.870;26.506;2022-10-17T14:31:22;36.58;;;7.03;;
34359;SDS011;20624;55.870;26.506;2022-10-17T14:33:54;37.47;;;7.32;;
34359;SDS011;20624;55.870;26.506;2022-10-17T14:36:30;27.70;;;6.82;;
34359;SDS011;20624;55.870;26.506;2022-10-17T14:39:03;35.13;;;7.00;;
34359;SDS011;20624;55.870;26.506;2022-10-17T14:41:38;27.25;;;6.60;;
34359;SDS011;20624;55.870;26.506;2022-10-17T14:44:29;22.38;;;5.45;;
34359;SDS011;20624;55.870;26.506;2022-10-17T14:47:04;20.05;;;5.25;;
34359;SDS011;20624;55.870;26.506;2022-10-17T14:53:05;16.75;;;5.35;;
34359;SDS011;20624;55.870;26.506;2022-10-17T14:55:34;15.70;;;4.43;;
34359;SDS011;20624;55.870;26.506;2022-10-17T14:58:14;15.73;;;4.13;;
34359;SDS011;20624;55.870;26.506;2022-10-17T15:00:43;20.98;;;5.32;;
34359;SDS011;20624;55.870;26.506;2022-10-17T15:03:11;20.42;;;4.70;;
34359;SDS011;20624;55.870;26.506;2022-10-17T15:05:39;12.00;;;3.90;;
34359;SDS011;20624;55.870;26.506;2022-10-17T15:08:14;15.60;;;3.90;;
34359;SDS011;20624;55.870;26.506;2022-10-17T15:10:42;13.45;;;3.65;;
34359;SDS011;20624;55.870;26.506;2022-10-17T15:13:12;10.38;;;3.22;;
34359;SDS011;20624;55.870;26.506;2022-10-17T15:15:54;15.00;;;4.13;;
34359;SDS011;20624;55.870;26.506;2022-10-17T15:18:21;11.13;;;2.85;;
34359;SDS011;20624;55.870;26.506;2022-10-17T15:20:49;11.40;;;3.33;;
34359;SDS011;20624;55.870;26.506;2022-10-17T15:23:33;8.50;;;2.83;;
34359;SDS011;20624;55.870;26.506;2022-10-17T15:26:01;16.20;;;3.80;;
34359;SDS011;20624;55.870;26.506;2022-10-17T15:28:29;7.55;;;2.65;;
34359;SDS011;20624;55.870;26.506;2022-10-17T15:30:57;7.68;;;2.70;;
34359;SDS011;20624;55.870;26.506;2022-10-17T15:33:27;11.45;;;3.15;;
34359;SDS011;20624;55.870;26.506;2022-10-17T15:35:55;11.00;;;3.50;;
34359;SDS011;20624;55.870;26.506;2022-10-17T15:38:23;12.52;;;3.67;;
34359;SDS011;20624;55.870;26.506;2022-10-17T15:40:51;10.00;;;3.10;;
34359;SDS011;20624;55.870;26.506;2022-10-17T15:43:19;7.80;;;2.75;;
34359;SDS011;20624;55.870;26.506;2022-10-17T15:45:47;7.53;;;2.65;;
34359;SDS011;20624;55.870;26.506;2022-10-17T15:48:16;10.45;;;2.95;;
34359;SDS011;20624;55.870;26.506;2022-10-17T15:50:47;9.85;;;2.88;;
34359;SDS011;20624;55.870;26.506;2022-10-17T15:53:15;10.75;;;3.00;;
34359;SDS011;20624;55.870;26.506;2022-10-17T15:55:43;8.60;;;2.75;;
34359;SDS011;20624;55.870;26.506;2022-10-17T15:58:16;8.90;;;2.65;;
34359;SDS011;20624;55.870;26.506;2022-10-17T16:00:44;8.70;;;2.72;;
34359;SDS011;20624;55.870;26.506;2022-10-17T16:03:12;8.23;;;2.63;;
34359;SDS011;20624;55.870;26.506;2022-10-17T16:05:40;7.93;;;2.35;;
34359;SDS011;20624;55.870;26.506;2022-10-17T16:08:08;12.77;;;3.33;;
34359;SDS011;20624;55.870;26.506;2022-10-17T16:10:36;7.97;;;2.22;;
34359;SDS011;20624;55.870;26.506;2022-10-17T16:13:05;9.48;;;2.67;;
34359;SDS011;20624;55.870;26.506;2022-10-17T16:15:37;5.40;;;1.95;;
34359;SDS011;20624;55.870;26.506;2022-10-17T16:18:05;8.40;;;2.53;;
34359;SDS011;20624;55.870;26.506;2022-10-17T16:20:35;6.95;;;2.53;;
34359;SDS011;20624;55.870;26.506;2022-10-17T16:23:03;8.73;;;2.42;;
34359;SDS011;20624;55.870;26.506;2022-10-17T16:25:31;6.57;;;2.40;;
34359;SDS011;20624;55.870;26.506;2022-10-17T16:27:59;6.63;;;1.90;;
34359;SDS011;20624;55.870;26.506;2022-10-17T16:30:28;8.40;;;2.80;;
34359;SDS011;20624;55.870;26.506;2022-10-17T16:32:57;10.63;;;2.45;;
34359;SDS011;20624;55.870;26.506;2022-10-17T16:35:26;10.70;;;2.85;;
34359;SDS011;20624;55.870;26.506;2022-10-17T16:38:02;9.45;;;2.45;;
34359;SDS011;20624;55.870;26.506;2022-10-17T16:40:30;6.97;;;1.70;;
34359;SDS011;20624;55.870;26.506;2022-10-17T16:42:58;9.98;;;2.30;;
34359;SDS011;20624;55.870;26.506;2022-10-17T16:45:25;6.22;;;1.95;;
34359;SDS011;20624;55.870;26.506;2022-10-17T16:47:53;10.55;;;2.65;;
34359;SDS011;20624;55.870;26.506;2022-10-17T16:50:21;7.65;;;2.10;;
34359;SDS011;20624;55.870;26.506;2022-10-17T16:52:49;10.07;;;2.33;;
34359;SDS011;20624;55.870;26.506;2022-10-17T16:55:17;5.65;;;1.73;;
34359;SDS011;20624;55.870;26.506;2022-10-17T16:57:45;4.05;;;1.45;;
34359;SDS011;20624;55.870;26.506;2022-10-17T17:00:14;3.63;;;1.30;;
34359;SDS011;20624;55.870;26.506;2022-10-17T17:02:42;4.80;;;1.50;;
34359;SDS011;20624;55.870;26.506;2022-10-17T17:05:12;7.68;;;2.00;;
34359;SDS011;20624;55.870;26.506;2022-10-17T17:07:40;6.70;;;1.58;;